Terminal Aerodrome Forecast
Issued by NWS Austin/San Antonio, TX

Home | Current Version | Previous Version | Text Only | Print | Product List | Glossary On
Versions: 1 2 3 4 5 6 7 8 9 10 11 12 13 14 15 16 17 18 19 20 21 22 23 24 25
000
FTUS44 KEWX 010535
TAFAUS
TAF
KAUS 010535Z 0106/0212 03005KT P6SM SCT250
     FM011000 02005KT P6SM OVC015
     FM012100 04010KT P6SM BKN025
     FM020100 02010KT P6SM OVC035 PROB30 0201/0206 4SM TSRA BR
      OVC025CB
     FM020900 36012KT P6SM OVC025=

USA.gov is the U.S. government's official web portal to all federal, state and local government web resources and services.